Time;durP1;ratioP1;P1;durP2;ratioP2;P2;SDS_P1;SDS_P2;PMS_P1;PMS_P2;Temp;Humidity;BMP_temperature;BMP_pressure;BME280_temperature;BME280_humidity;BME280_pressure;Samples;Min_cycle;Max_cycle;Signal;HPM_P1;HPM_P2
2022/07/06 00:02:25;;;;;;;5.78;1.95;;;;;;;;;;5013865;28;20017;-57
2022/07/06 00:04:54;;;;;;;2.25;1.80;;;;;;;;;;5015382;28;20030;-56
2022/07/06 00:07:30;;;;;;;3.30;1.85;;;;;;;;;;5014925;28;20037;-55
2022/07/06 00:09:58;;;;;;;4.65;1.95;;;;;;;;;;5014166;28;20579;-55
2022/07/06 00:12:29;;;;;;;2.92;1.83;;;;;;;;;;5012327;28;20086;-56
2022/07/06 00:15:04;;;;;;;4.18;2.33;;;;;;;;;;5026436;28;20078;-55
2022/07/06 00:17:37;;;;;;;5.97;2.60;;;;;;;;;;5053032;28;20032;-57
2022/07/06 00:20:17;;;;;;;2.08;1.40;;;;;;;;;;5053425;28;20025;-58
2022/07/06 00:22:59;;;;;;;;;;;;;;;;;;;;;
2022/07/06 00:25:40;;;;;;;4.63;1.98;;;;;;;;;;5053163;28;20028;-57
2022/07/06 00:28:22;;;;;;;2.97;1.42;;;;;;;;;;5053413;28;20025;-57
2022/07/06 00:31:24;;;;;;;3.05;1.58;;;;;;;;;;5052130;28;20535;-57
2022/07/06 00:33:55;;;;;;;2.53;1.60;;;;;;;;;;5053411;28;20041;-57
2022/07/06 00:36:32;;;;;;;2.53;1.50;;;;;;;;;;5053519;28;20057;-57
2022/07/06 00:39:08;;;;;;;4.70;2.20;;;;;;;;;;5053777;28;20017;-57
2022/07/06 00:44:39;;;;;;;4.80;2.17;;;;;;;;;;5055953;28;20045;-57
2022/07/06 00:47:12;;;;;;;3.92;1.80;;;;;;;;;;5058109;28;20029;-55
2022/07/06 00:52:40;;;;;;;3.65;1.67;;;;;;;;;;5058123;28;20553;-57
2022/07/06 00:55:22;;;;;;;2.35;1.95;;;;;;;;;;5056344;28;20391;-55
2022/07/06 00:57:49;;;;;;;4.25;2.00;;;;;;;;;;5055993;28;20052;-55
2022/07/06 01:00:31;;;;;;;2.95;1.60;;;;;;;;;;5056546;28;20197;-57
2022/07/06 01:03:17;;;;;;;7.07;2.05;;;;;;;;;;5056795;28;20040;-56
2022/07/06 01:06:03;;;;;;;4.03;2.17;;;;;;;;;;5057131;28;20033;-57
2022/07/06 01:08:39;;;;;;;4.18;2.13;;;;;;;;;;5056242;28;20083;-56
2022/07/06 01:11:26;;;;;;;3.17;2.15;;;;;;;;;;5056125;28;20075;-57
2022/07/06 01:14:19;;;;;;;2.88;2.20;;;;;;;;;;5057855;28;20108;-57
2022/07/06 01:16:47;;;;;;;4.05;2.38;;;;;;;;;;5018790;28;20365;-57
2022/07/06 01:19:23;;;;;;;2.95;1.88;;;;;;;;;;5017350;28;20030;-56
2022/07/06 01:21:59;;;;;;;3.45;1.85;;;;;;;;;;5017385;28;20030;-57
2022/07/06 01:24:38;;;;;;;;;;;;;;;;;;;;;
2022/07/06 01:27:38;;;;;;;;;;;;;;;;;;;;;
2022/07/06 01:30:43;;;;;;;2.88;1.95;;;;;;;;;;5002120;28;20750;-57
2022/07/06 01:33:34;;;;;;;2.38;1.73;;;;;;;;;;5014469;28;20092;-56
2022/07/06 01:36:09;;;;;;;2.90;1.63;;;;;;;;;;5017222;28;20126;-57
2022/07/06 01:39:07;;;;;;;3.15;1.77;;;;;;;;;;5017063;28;20380;-57
2022/07/06 01:41:38;;;;;;;3.03;1.42;;;;;;;;;;5016848;28;20026;-58
2022/07/06 01:44:11;;;;;;;2.88;2.05;;;;;;;;;;5017675;28;20217;-56
2022/07/06 01:46:47;;;;;;;3.17;2.08;;;;;;;;;;5017478;28;20034;-56
2022/07/06 01:49:22;;;;;;;2.45;1.88;;;;;;;;;;5017352;28;20030;-54
2022/07/06 01:51:50;;;;;;;3.55;1.75;;;;;;;;;;5016848;28;20072;-57
2022/07/06 01:54:25;;;;;;;1.75;1.30;;;;;;;;;;5017110;28;20038;-56
2022/07/06 01:57:00;;;;;;;2.70;1.92;;;;;;;;;;5018038;28;20384;-57
2022/07/06 01:59:45;;;;;;;4.30;1.67;;;;;;;;;;5017654;28;20030;-57
2022/07/06 02:02:11;;;;;;;3.58;1.92;;;;;;;;;;5014349;28;20415;-56
2022/07/06 02:04:58;;;;;;;4.18;2.08;;;;;;;;;;4992952;28;20075;-56
2022/07/06 02:07:32;;;;;;;1.85;1.23;;;;;;;;;;4978519;28;20037;-57
2022/07/06 02:10:08;;;;;;;2.35;1.40;;;;;;;;;;4994314;28;20027;-57
2022/07/06 02:12:57;;;;;;;4.07;2.03;;;;;;;;;;4994273;28;20201;-56
2022/07/06 02:15:31;;;;;;;3.17;2.17;;;;;;;;;;5026418;28;20037;-57
2022/07/06 02:18:13;;;;;;;2.50;1.73;;;;;;;;;;5056066;28;20029;-56
2022/07/06 02:20:55;;;;;;;4.35;2.05;;;;;;;;;;5056054;28;20029;-57
2022/07/06 02:23:31;;;;;;;5.53;2.03;;;;;;;;;;5056435;28;20021;-57
2022/07/06 02:26:09;;;;;;;3.92;1.80;;;;;;;;;;5054565;28;20479;-57
2022/07/06 02:28:47;;;;;;;2.88;1.67;;;;;;;;;;5057198;28;20033;-57
2022/07/06 02:31:25;;;;;;;5.50;1.95;;;;;;;;;;5054567;28;20070;-57
2022/07/06 02:34:07;;;;;;;3.88;2.22;;;;;;;;;;5037063;28;20283;-57
2022/07/06 02:36:46;;;;;;;2.95;1.75;;;;;;;;;;5036902;28;20498;-57
2022/07/06 02:39:29;;;;;;;2.50;1.90;;;;;;;;;;5036824;28;20044;-56
2022/07/06 02:41:59;;;;;;;3.97;1.35;;;;;;;;;;5035987;28;20105;-56
2022/07/06 02:44:47;;;;;;;3.33;1.90;;;;;;;;;;5036661;28;20037;-57
2022/07/06 02:47:23;;;;;;;4.72;2.67;;;;;;;;;;5036325;28;20034;-57
2022/07/06 02:49:56;;;;;;;2.63;1.52;;;;;;;;;;5035631;28;20031;-57
2022/07/06 02:52:23;;;;;;;3.47;2.03;;;;;;;;;;5035494;28;20450;-56
2022/07/06 02:58:20;;;;;;;2.85;1.77;;;;;;;;;;5034218;28;20087;-57
2022/07/06 03:01:00;;;;;;;3.63;2.05;;;;;;;;;;5034069;28;20383;-57
2022/07/06 03:07:00;;;;;;;4.88;2.75;;;;;;;;;;5026948;28;20033;-57
2022/07/06 03:09:47;;;;;;;3.25;2.17;;;;;;;;;;5036362;28;20021;-56
2022/07/06 03:12:57;;;;;;;4.07;1.95;;;;;;;;;;5049740;28;20048;-57
2022/07/06 03:15:35;;;;;;;2.75;2.10;;;;;;;;;;5045383;28;20066;-57
2022/07/06 03:18:05;;;;;;;2.70;1.73;;;;;;;;;;5054642;28;20086;-57
2022/07/06 03:20:43;;;;;;;3.13;2.35;;;;;;;;;;5055547;28;20025;-56
2022/07/06 03:23:22;;;;;;;3.13;2.20;;;;;;;;;;5056237;28;20240;-57
2022/07/06 03:25:57;;;;;;;2.58;1.75;;;;;;;;;;5055139;28;20100;-57
2022/07/06 03:28:34;;;;;;;4.55;2.15;;;;;;;;;;5055252;28;20017;-54
2022/07/06 03:31:30;;;;;;;4.05;2.42;;;;;;;;;;5047748;28;20024;-57
2022/07/06 03:34:17;;;;;;;4.30;2.50;;;;;;;;;;5044271;28;20380;-56
2022/07/06 03:36:52;;;;;;;3.45;2.05;;;;;;;;;;5031991;28;20120;-56
2022/07/06 03:39:51;;;;;;;3.42;1.95;;;;;;;;;;5030621;28;20033;-57
2022/07/06 03:42:27;;;;;;;4.38;1.98;;;;;;;;;;5013594;28;20036;-56
2022/07/06 03:47:49;;;;;;;4.32;2.15;;;;;;;;;;5019090;28;20037;-56
2022/07/06 03:50:42;;;;;;;2.88;2.03;;;;;;;;;;5031809;28;20100;-57
2022/07/06 03:53:16;;;;;;;3.28;2.05;;;;;;;;;;5032369;28;20040;-56
2022/07/06 03:58:56;;;;;;;2.35;1.88;;;;;;;;;;5030834;28;20064;-54
2022/07/06 04:01:48;;;;;;;5.85;2.85;;;;;;;;;;5030491;28;20079;-55
2022/07/06 04:04:20;;;;;;;3.47;1.98;;;;;;;;;;5031359;28;20060;-56
2022/07/06 04:07:16;;;;;;;3.22;1.83;;;;;;;;;;5031207;28;20075;-56
2022/07/06 04:16:00;;;;;;;3.28;2.13;;;;;;;;;;5043693;28;20094;-57
2022/07/06 04:18:42;;;;;;;3.58;2.13;;;;;;;;;;5032085;28;20028;-56
2022/07/06 04:21:15;;;;;;;3.20;2.63;;;;;;;;;;5025606;28;20033;-57
2022/07/06 04:23:49;;;;;;;2.55;1.98;;;;;;;;;;5032267;28;20029;-57
2022/07/06 04:26:25;;;;;;;5.05;2.30;;;;;;;;;;5032326;28;20029;-57
2022/07/06 04:28:57;;;;;;;3.05;2.25;;;;;;;;;;5032065;28;20479;-55
2022/07/06 04:31:35;;;;;;;2.55;1.88;;;;;;;;;;5030819;28;20181;-56
2022/07/06 04:34:08;;;;;;;7.18;2.33;;;;;;;;;;5030385;28;20112;-56
2022/07/06 04:36:45;;;;;;;4.70;2.20;;;;;;;;;;5034313;28;20377;-57
2022/07/06 04:39:43;;;;;;;4.22;1.90;;;;;;;;;;5024706;28;20033;-57
2022/07/06 04:42:22;;;;;;;3.67;2.20;;;;;;;;;;5012876;28;20038;-57
2022/07/06 04:45:00;;;;;;;3.35;2.08;;;;;;;;;;5028714;28;20059;-56
2022/07/06 04:47:35;;;;;;;3.92;2.88;;;;;;;;;;5031799;28;20160;-57
2022/07/06 04:50:14;;;;;;;3.67;2.20;;;;;;;;;;5042128;28;20097;-57
2022/07/06 04:53:06;;;;;;;3.70;2.00;;;;;;;;;;5029396;28;20069;-57
2022/07/06 04:55:45;;;;;;;2.80;2.50;;;;;;;;;;5030399;28;20021;-57
2022/07/06 04:58:36;;;;;;;3.75;2.70;;;;;;;;;;5033022;28;20035;-57
2022/07/06 05:01:12;;;;;;;6.25;2.53;;;;;;;;;;5020643;28;20026;-56
2022/07/06 05:03:54;;;;;;;4.75;2.75;;;;;;;;;;5024846;28;20495;-57
2022/07/06 05:06:23;;;;;;;6.75;2.70;;;;;;;;;;5031404;28;20398;-55
2022/07/06 05:08:59;;;;;;;3.75;2.53;;;;;;;;;;5025891;28;20108;-56
2022/07/06 05:12:05;;;;;;;;;;;;;;;;;;;;;
2022/07/06 05:14:53;;;;;;;3.42;2.78;;;;;;;;;;5020535;28;20037;-57
2022/07/06 05:17:25;;;;;;;3.97;2.83;;;;;;;;;;5031637;28;20030;-57
2022/07/06 05:19:58;;;;;;;4.28;2.90;;;;;;;;;;5029423;28;20036;-57
2022/07/06 05:22:53;;;;;;;3.78;2.88;;;;;;;;;;5031572;28;20033;-57
2022/07/06 05:25:21;;;;;;;2.95;2.53;;;;;;;;;;5027740;28;20033;-56
2022/07/06 05:27:51;;;;;;;5.07;3.85;;;;;;;;;;5034046;28;20104;-55
2022/07/06 05:30:24;;;;;;;3.10;2.50;;;;;;;;;;5035541;28;20022;-55
2022/07/06 05:32:59;;;;;;;4.85;3.67;;;;;;;;;;5036712;28;21339;-57
2022/07/06 05:35:34;;;;;;;5.50;3.03;;;;;;;;;;5038636;28;20543;-57
2022/07/06 05:38:13;;;;;;;;;;;;;;;;;;;;;
2022/07/06 05:41:17;;;;;;;5.32;2.63;;;;;;;;;;5017308;28;20120;-55
2022/07/06 05:43:43;;;;;;;4.03;3.20;;;;;;;;;;5026389;28;20033;-57
2022/07/06 05:46:19;;;;;;;2.85;2.30;;;;;;;;;;5036901;28;20060;-57
2022/07/06 05:51:47;;;;;;;;;;;;;;;;;;;;;
2022/07/06 05:54:19;;;;;;;4.45;2.65;;;;;;;;;;5030526;28;20120;-56
2022/07/06 05:56:51;;;;;;;4.63;3.53;;;;;;;;;;5034906;28;20121;-57
2022/07/06 05:59:18;;;;;;;4.68;2.97;;;;;;;;;;5036951;28;20037;-57
2022/07/06 06:02:13;;;;;;;4.68;3.00;;;;;;;;;;5036440;28;20044;-57
2022/07/06 06:04:49;;;;;;;5.80;2.58;;;;;;;;;;5035380;28;20026;-55
2022/07/06 06:10:28;;;;;;;4.00;2.97;;;;;;;;;;5031240;28;20124;-55
2022/07/06 06:13:03;;;;;;;3.20;2.60;;;;;;;;;;5033098;28;20040;-57
2022/07/06 06:15:46;;;;;;;7.07;3.05;;;;;;;;;;5037037;28;20385;-55
2022/07/06 06:18:32;;;;;;;5.05;2.65;;;;;;;;;;5034381;28;20045;-57
2022/07/06 06:21:20;;;;;;;;;;;;;;;;;;;;;
2022/07/06 06:24:33;;;;;;;;;;;;;;;;;;;;;
2022/07/06 06:26:48;;;;;;;4.55;2.58;;;;;;;;;;5033817;28;20546;-57
2022/07/06 06:29:32;;;;;;;7.13;2.83;;;;;;;;;;5036109;28;20029;-57
2022/07/06 06:31:58;;;;;;;7.88;3.00;;;;;;;;;;5036587;28;20095;-57
2022/07/06 06:34:44;;;;;;;5.28;3.13;;;;;;;;;;5035842;28;20407;-54
2022/07/06 06:37:41;;;;;;;;;;;;;;;;;;;;;
2022/07/06 06:40:11;;;;;;;4.05;2.70;;;;;;;;;;5034374;28;20104;-57
2022/07/06 06:42:38;;;;;;;4.63;3.08;;;;;;;;;;5034239;28;20395;-57
2022/07/06 06:45:07;;;;;;;5.93;2.65;;;;;;;;;;5033843;28;20029;-57
2022/07/06 06:50:45;;;;;;;3.45;2.78;;;;;;;;;;5021260;28;20033;-57
2022/07/06 06:53:23;;;;;;;3.50;2.53;;;;;;;;;;5032407;28;20072;-57
2022/07/06 06:56:08;;;;;;;3.17;2.45;;;;;;;;;;5030593;28;20067;-56
2022/07/06 07:01:49;;;;;;;;;;;;;;;;;;;;;
2022/07/06 07:04:15;;;;;;;3.35;2.20;;;;;;;;;;5029272;28;20100;-57
2022/07/06 07:06:52;;;;;;;3.75;2.70;;;;;;;;;;5034830;28;20060;-57
2022/07/06 07:09:21;;;;;;;7.43;3.25;;;;;;;;;;5034864;28;20471;-57
2022/07/06 07:12:00;;;;;;;5.22;2.78;;;;;;;;;;5049315;28;20088;-54
2022/07/06 07:15:00;;;;;;;3.80;3.00;;;;;;;;;;5036836;28;20033;-57
2022/07/06 07:17:26;;;;;;;3.38;2.60;;;;;;;;;;5055360;28;20027;-56
2022/07/06 07:20:03;;;;;;;4.72;3.28;;;;;;;;;;5049595;28;20056;-57
2022/07/06 07:22:39;;;;;;;4.80;3.17;;;;;;;;;;5034567;28;20036;-57
2022/07/06 07:28:06;;;;;;;5.47;3.20;;;;;;;;;;5036629;28;20087;-57
2022/07/06 07:30:50;;;;;;;;;;;;;;;;;;;;;
2022/07/06 07:33:19;;;;;;;5.55;3.63;;;;;;;;;;5033158;28;20033;-56
2022/07/06 07:38:46;;;;;;;2.75;1.90;;;;;;;;;;5035598;28;20043;-57
2022/07/06 07:44:24;;;;;;;8.30;3.47;;;;;;;;;;5014125;28;20030;-59
2022/07/06 07:47:10;;;;;;;4.32;2.80;;;;;;;;;;5023790;28;20038;-59
2022/07/06 07:49:49;;;;;;;4.03;2.92;;;;;;;;;;5034317;28;20156;-59
2022/07/06 07:52:21;;;;;;;4.10;2.25;;;;;;;;;;5032490;28;20079;-59
2022/07/06 07:55:10;;;;;;;7.18;2.85;;;;;;;;;;5034954;28;20037;-59
2022/07/06 07:57:37;;;;;;;6.20;2.90;;;;;;;;;;5033713;28;20531;-59
2022/07/06 08:00:10;;;;;;;7.90;2.92;;;;;;;;;;5034835;28;20040;-59
2022/07/06 08:02:45;;;;;;;3.50;2.50;;;;;;;;;;5034837;28;20052;-59
2022/07/06 08:05:13;;;;;;;3.55;2.97;;;;;;;;;;5032783;28;20029;-59
2022/07/06 08:07:45;;;;;;;3.00;2.65;;;;;;;;;;5031074;28;20045;-59
2022/07/06 08:10:21;;;;;;;3.28;2.53;;;;;;;;;;5030540;28;20044;-59
2022/07/06 08:15:49;;;;;;;5.93;2.88;;;;;;;;;;5013075;28;20111;-59
2022/07/06 08:18:32;;;;;;;4.47;3.03;;;;;;;;;;5032362;28;20049;-59
2022/07/06 08:20:58;;;;;;;4.05;2.42;;;;;;;;;;5011775;28;20029;-59
2022/07/06 08:23:30;;;;;;;4.45;2.63;;;;;;;;;;5012409;28;20105;-59
2022/07/06 08:26:05;;;;;;;4.82;2.90;;;;;;;;;;5029936;28;20021;-59
2022/07/06 08:28:31;;;;;;;4.05;2.60;;;;;;;;;;5031907;28;20112;-59
2022/07/06 08:31:06;;;;;;;3.25;2.25;;;;;;;;;;5030965;28;20022;-59
2022/07/06 08:33:41;;;;;;;3.67;2.35;;;;;;;;;;5032317;28;20451;-59
2022/07/06 08:36:46;;;;;;;6.43;3.78;;;;;;;;;;5032811;28;20025;-59
2022/07/06 08:39:23;;;;;;;3.80;2.70;;;;;;;;;;5024519;28;20080;-59
2022/07/06 08:41:52;;;;;;;3.75;3.13;;;;;;;;;;4999156;28;20091;-59
2022/07/06 08:44:30;;;;;;;3.97;2.90;;;;;;;;;;5030552;28;20026;-59
2022/07/06 08:47:11;;;;;;;6.68;3.38;;;;;;;;;;5024910;28;20450;-59
2022/07/06 08:49:44;;;;;;;4.05;2.88;;;;;;;;;;5032087;28;20367;-59
2022/07/06 08:52:13;;;;;;;6.57;3.25;;;;;;;;;;5022198;28;20029;-59
2022/07/06 08:54:40;;;;;;;3.47;2.65;;;;;;;;;;5028132;28;20054;-59
2022/07/06 08:57:15;;;;;;;3.45;2.42;;;;;;;;;;5029225;28;20507;-59
2022/07/06 08:59:41;;;;;;;4.15;2.75;;;;;;;;;;5012550;28;20042;-59
2022/07/06 09:02:11;;;;;;;4.32;2.65;;;;;;;;;;5027391;28;20527;-59
2022/07/06 09:04:43;;;;;;;4.95;2.85;;;;;;;;;;5019927;28;20034;-59
2022/07/06 09:07:12;;;;;;;3.35;2.75;;;;;;;;;;5034092;28;20429;-59
2022/07/06 09:12:46;;;;;;;2.97;2.40;;;;;;;;;;5027112;28;20038;-59
2022/07/06 09:15:47;;;;;;;2.90;2.22;;;;;;;;;;5043672;28;20037;-59
2022/07/06 09:18:30;;;;;;;5.53;3.25;;;;;;;;;;5013639;28;20445;-59
2022/07/06 09:20:57;;;;;;;4.32;2.63;;;;;;;;;;5025917;28;20064;-60
2022/07/06 09:23:27;;;;;;;10.27;3.92;;;;;;;;;;5034015;28;20030;-60
2022/07/06 09:25:55;;;;;;;4.53;2.80;;;;;;;;;;5015501;28;20376;-59
2022/07/06 09:28:42;;;;;;;3.25;2.83;;;;;;;;;;5035368;28;20039;-59
2022/07/06 09:31:19;;;;;;;5.65;2.75;;;;;;;;;;5033008;28;20037;-59
2022/07/06 09:33:55;;;;;;;5.82;2.40;;;;;;;;;;5033953;28;20032;-59
2022/07/06 09:36:46;;;;;;;3.35;2.90;;;;;;;;;;5030654;28;20025;-59
2022/07/06 09:39:36;;;;;;;4.78;3.13;;;;;;;;;;5031329;28;20452;-59
2022/07/06 09:42:24;;;;;;;;;;;;;;;;;;;;;
2022/07/06 09:44:56;;;;;;;3.55;2.22;;;;;;;;;;5033305;28;20025;-59
2022/07/06 09:47:29;;;;;;;3.05;2.40;;;;;;;;;;5032892;28;20032;-59
2022/07/06 09:49:56;;;;;;;3.67;2.53;;;;;;;;;;5033710;28;20022;-59
2022/07/06 09:52:47;;;;;;;3.88;2.55;;;;;;;;;;5026285;28;20057;-59
2022/07/06 09:55:16;;;;;;;4.05;2.90;;;;;;;;;;5029393;28;20124;-59
2022/07/06 09:58:11;;;;;;;2.63;2.22;;;;;;;;;;5027256;28;20491;-59
2022/07/06 10:00:50;;;;;;;4.88;2.47;;;;;;;;;;5034602;28;20036;-59
2022/07/06 10:03:29;;;;;;;3.65;2.45;;;;;;;;;;5023452;28;20030;-60
2022/07/06 10:06:05;;;;;;;4.45;2.25;;;;;;;;;;5028901;28;20022;-59
2022/07/06 10:08:55;;;;;;;3.65;2.08;;;;;;;;;;5033603;28;20025;-59
2022/07/06 10:11:27;;;;;;;2.35;2.05;;;;;;;;;;5013935;28;20091;-59
2022/07/06 10:13:57;;;;;;;5.28;2.60;;;;;;;;;;5023965;28;20038;-59
2022/07/06 10:16:24;;;;;;;5.85;2.45;;;;;;;;;;5033676;28;20061;-59
2022/07/06 10:19:09;;;;;;;5.32;2.90;;;;;;;;;;5034618;28;20029;-60
2022/07/06 10:22:09;;;;;;;8.30;2.83;;;;;;;;;;5034633;28;20025;-59
2022/07/06 10:24:44;;;;;;;3.53;2.90;;;;;;;;;;5033886;28;20108;-59
2022/07/06 10:27:23;;;;;;;4.45;2.47;;;;;;;;;;5035083;28;20443;-59
2022/07/06 10:29:55;;;;;;;6.80;3.83;;;;;;;;;;5035657;28;20043;-59
2022/07/06 10:32:41;;;;;;;5.28;2.50;;;;;;;;;;5035183;28;20088;-59
2022/07/06 10:35:10;;;;;;;3.92;3.53;;;;;;;;;;5030079;28;20056;-59
2022/07/06 10:38:00;;;;;;;3.35;3.05;;;;;;;;;;5035510;28;20040;-59
2022/07/06 10:43:28;;;;;;;4.45;2.95;;;;;;;;;;5034402;28;20438;-59
2022/07/06 10:46:19;;;;;;;3.80;2.30;;;;;;;;;;5026775;28;20021;-59
2022/07/06 10:49:00;;;;;;;2.42;2.10;;;;;;;;;;5033478;28;20521;-59
2022/07/06 10:51:28;;;;;;;5.50;2.28;;;;;;;;;;5014387;28;20423;-59
2022/07/06 10:54:10;;;;;;;2.60;2.10;;;;;;;;;;5033231;28;20039;-59
2022/07/06 10:56:41;;;;;;;3.15;2.28;;;;;;;;;;5032917;28;20037;-59
2022/07/06 10:59:13;;;;;;;5.28;2.67;;;;;;;;;;5031858;28;20087;-59
2022/07/06 11:02:09;;;;;;;4.03;2.95;;;;;;;;;;5030569;28;20029;-59
2022/07/06 11:04:43;;;;;;;2.40;2.00;;;;;;;;;;4997629;28;20506;-59
2022/07/06 11:07:12;;;;;;;10.02;3.10;;;;;;;;;;5013632;28;20030;-59
2022/07/06 11:10:02;;;;;;;6.70;2.33;;;;;;;;;;5025846;28;20025;-59
2022/07/06 11:12:41;;;;;;;6.43;2.90;;;;;;;;;;5028175;28;20040;-59
2022/07/06 11:15:33;;;;;;;2.83;2.20;;;;;;;;;;5039661;28;20068;-59
2022/07/06 11:18:39;;;;;;;6.22;3.08;;;;;;;;;;5042999;28;20490;-59
2022/07/06 11:21:24;;;;;;;3.17;2.47;;;;;;;;;;4986127;28;20026;-59
2022/07/06 11:23:51;;;;;;;7.80;3.72;;;;;;;;;;5024697;28;20076;-59
2022/07/06 11:26:22;;;;;;;4.18;3.67;;;;;;;;;;5032320;28;20048;-59
2022/07/06 11:28:55;;;;;;;5.57;3.00;;;;;;;;;;5031710;28;20030;-59
2022/07/06 11:31:32;;;;;;;3.30;2.30;;;;;;;;;;5030511;28;20101;-59
2022/07/06 11:34:17;;;;;;;6.70;3.10;;;;;;;;;;5031126;28;20033;-59
2022/07/06 11:36:53;;;;;;;;;;;;;;;;;;;;;
2022/07/06 11:39:50;;;;;;;3.42;2.65;;;;;;;;;;5027209;28;20513;-59
2022/07/06 11:42:22;;;;;;;3.42;2.92;;;;;;;;;;5058392;28;20040;-59
2022/07/06 11:45:13;;;;;;;3.05;2.47;;;;;;;;;;5030448;28;20554;-59
2022/07/06 11:47:43;;;;;;;2.72;2.10;;;;;;;;;;5030992;28;20034;-59
2022/07/06 11:50:29;;;;;;;;;;;;;;;;;;;;;
2022/07/06 11:53:16;;;;;;;5.20;2.70;;;;;;;;;;5022341;28;20049;-59
2022/07/06 11:55:55;;;;;;;2.70;2.20;;;;;;;;;;5031151;28;20026;-59
2022/07/06 11:58:33;;;;;;;11.07;3.53;;;;;;;;;;5032306;28;20033;-59
2022/07/06 12:01:11;;;;;;;3.85;2.88;;;;;;;;;;5030207;28;20060;-59
2022/07/06 12:03:43;;;;;;;3.78;2.58;;;;;;;;;;5031608;28;20589;-59
2022/07/06 12:06:25;;;;;;;3.45;2.58;;;;;;;;;;5031918;28;20037;-59
2022/07/06 12:09:04;;;;;;;5.70;2.83;;;;;;;;;;5031717;28;20037;-59
2022/07/06 12:11:46;;;;;;;3.40;2.65;;;;;;;;;;5024299;28;20061;-59
2022/07/06 12:14:21;;;;;;;4.15;2.65;;;;;;;;;;5033486;28;20034;-59
2022/07/06 12:16:53;;;;;;;4.97;2.75;;;;;;;;;;5052614;28;20033;-59
2022/07/06 12:19:56;;;;;;;9.13;3.25;;;;;;;;;;5030195;28;20049;-59
2022/07/06 12:22:31;;;;;;;6.95;3.75;;;;;;;;;;5032761;28;20037;-59
2022/07/06 12:25:00;;;;;;;3.35;2.65;;;;;;;;;;5032909;28;20022;-59
2022/07/06 12:27:36;;;;;;;6.07;2.53;;;;;;;;;;5031204;28;20495;-59
2022/07/06 12:30:20;;;;;;;5.03;3.63;;;;;;;;;;5025412;28;20398;-59
2022/07/06 12:33:08;;;;;;;5.07;3.30;;;;;;;;;;5032825;28;20025;-59
2022/07/06 12:35:38;;;;;;;3.40;2.72;;;;;;;;;;5032834;28;20475;-59
2022/07/06 12:38:10;;;;;;;3.17;2.38;;;;;;;;;;5029289;28;20025;-59
2022/07/06 12:40:46;;;;;;;4.13;2.80;;;;;;;;;;5031779;28;20033;-59
2022/07/06 12:43:42;;;;;;;4.03;2.58;;;;;;;;;;5032551;28;20100;-59
2022/07/06 12:46:38;;;;;;;;;;;;;;;;;;;;;
2022/07/06 12:49:12;;;;;;;2.72;2.20;;;;;;;;;;5028094;28;20033;-59
2022/07/06 12:51:59;;;;;;;3.35;2.03;;;;;;;;;;5031877;28;20132;-59
2022/07/06 12:54:41;;;;;;;4.50;2.40;;;;;;;;;;5032229;28;20038;-59
2022/07/06 12:57:23;;;;;;;5.90;3.03;;;;;;;;;;5030035;28;20177;-59
2022/07/06 12:59:56;;;;;;;4.20;3.03;;;;;;;;;;5028895;28;20040;-59
2022/07/06 13:02:26;;;;;;;5.95;2.90;;;;;;;;;;5032113;28;20030;-59
2022/07/06 13:05:01;;;;;;;7.40;3.17;;;;;;;;;;5032142;28;20022;-59
2022/07/06 13:07:40;;;;;;;4.60;2.55;;;;;;;;;;5031851;28;20383;-59
2022/07/06 13:10:10;;;;;;;5.10;2.70;;;;;;;;;;5031228;28;20510;-59
2022/07/06 13:12:47;;;;;;;4.32;3.00;;;;;;;;;;5031472;28;20371;-59
2022/07/06 13:15:19;;;;;;;2.55;2.13;;;;;;;;;;5040418;28;20107;-59
2022/07/06 13:17:58;;;;;;;4.15;2.78;;;;;;;;;;5039655;28;20091;-59
2022/07/06 13:20:31;;;;;;;5.73;2.60;;;;;;;;;;5031239;28;20379;-59
2022/07/06 13:23:06;;;;;;;6.03;3.47;;;;;;;;;;5031009;28;20483;-59
2022/07/06 13:26:08;;;;;;;6.57;2.83;;;;;;;;;;5029444;28;20555;-59
2022/07/06 13:28:46;;;;;;;5.75;2.70;;;;;;;;;;5060662;28;20021;-59
2022/07/06 13:31:19;;;;;;;2.75;2.10;;;;;;;;;;5030315;28;20506;-59
2022/07/06 13:33:57;;;;;;;2.70;2.22;;;;;;;;;;5030981;28;20076;-59
2022/07/06 13:36:29;;;;;;;3.72;2.20;;;;;;;;;;5032485;28;20111;-59
2022/07/06 13:38:59;;;;;;;5.65;2.28;;;;;;;;;;5029723;28;20406;-59
2022/07/06 13:41:38;;;;;;;3.50;2.42;;;;;;;;;;5031563;28;20104;-59
2022/07/06 13:44:28;;;;;;;7.18;2.70;;;;;;;;;;5031121;28;20548;-59
2022/07/06 13:47:06;;;;;;;3.13;2.10;;;;;;;;;;5024540;28;20072;-59
2022/07/06 13:49:39;;;;;;;2.85;2.13;;;;;;;;;;5062646;28;20079;-59
2022/07/06 13:52:07;;;;;;;2.92;1.63;;;;;;;;;;5035125;28;20037;-59
2022/07/06 13:54:56;;;;;;;3.75;2.60;;;;;;;;;;5033489;28;20080;-58
2022/07/06 13:57:25;;;;;;;2.90;2.17;;;;;;;;;;5028424;28;20041;-59
2022/07/06 13:59:57;;;;;;;3.42;2.33;;;;;;;;;;5034611;28;20032;-59
2022/07/06 14:02:34;;;;;;;2.95;2.17;;;;;;;;;;5035278;28;20033;-59
2022/07/06 14:05:09;;;;;;;3.13;2.50;;;;;;;;;;5031770;28;20144;-59
2022/07/06 14:07:38;;;;;;;5.03;2.58;;;;;;;;;;5027380;28;20034;-59
2022/07/06 14:10:14;;;;;;;3.13;2.20;;;;;;;;;;5033640;28;20347;-59
2022/07/06 14:12:45;;;;;;;3.75;2.28;;;;;;;;;;5034056;28;20083;-59
2022/07/06 14:15:20;;;;;;;5.88;2.20;;;;;;;;;;5042586;28;20139;-59
2022/07/06 14:17:52;;;;;;;3.38;2.08;;;;;;;;;;5040796;28;20025;-59
2022/07/06 14:20:27;;;;;;;3.47;2.13;;;;;;;;;;5033581;28;20020;-59
2022/07/06 14:23:11;;;;;;;3.45;2.53;;;;;;;;;;5034351;28;20112;-59
2022/07/06 14:25:42;;;;;;;3.15;1.85;;;;;;;;;;5033330;28;20025;-59
2022/07/06 14:28:26;;;;;;;3.90;2.38;;;;;;;;;;5025494;28;20520;-59
2022/07/06 14:31:02;;;;;;;2.92;1.83;;;;;;;;;;5025512;28;20032;-59
2022/07/06 14:33:28;;;;;;;2.55;1.75;;;;;;;;;;5034426;28;20026;-59
2022/07/06 14:36:00;;;;;;;2.45;1.90;;;;;;;;;;5049266;28;20034;-59
2022/07/06 14:38:41;;;;;;;3.38;2.15;;;;;;;;;;5032315;28;20056;-59
2022/07/06 14:41:20;;;;;;;;;;;;;;;;;;;;;
2022/07/06 14:43:52;;;;;;;4.13;2.10;;;;;;;;;;5032237;28;20025;-59
2022/07/06 14:46:30;;;;;;;2.33;1.70;;;;;;;;;;5034824;28;20537;-59
2022/07/06 14:49:05;;;;;;;4.22;2.13;;;;;;;;;;5028660;28;20230;-59
2022/07/06 14:51:35;;;;;;;2.78;2.20;;;;;;;;;;5033349;28;20470;-59
2022/07/06 14:54:07;;;;;;;4.43;2.73;;;;;;;;;;5047687;28;20033;-59
2022/07/06 14:56:40;;;;;;;3.47;2.40;;;;;;;;;;5023960;28;20033;-59
2022/07/06 14:59:09;;;;;;;3.13;2.22;;;;;;;;;;5019636;28;20046;-59
2022/07/06 15:01:44;;;;;;;2.50;2.17;;;;;;;;;;5028162;28;20418;-59
2022/07/06 15:04:43;;;;;;;2.95;2.22;;;;;;;;;;5032796;28;20033;-58
2022/07/06 15:07:19;;;;;;;2.70;1.73;;;;;;;;;;5026817;28;20036;-59
2022/07/06 15:09:47;;;;;;;3.60;2.00;;;;;;;;;;5025150;28;20097;-59
2022/07/06 15:12:14;;;;;;;4.47;2.30;;;;;;;;;;5023956;28;20382;-59
2022/07/06 15:14:46;;;;;;;2.83;1.98;;;;;;;;;;5031007;28;20033;-59
2022/07/06 15:17:33;;;;;;;3.85;2.08;;;;;;;;;;5029002;28;20413;-59
2022/07/06 15:20:16;;;;;;;3.80;1.67;;;;;;;;;;5028101;28;20103;-59
2022/07/06 15:22:47;;;;;;;3.65;1.88;;;;;;;;;;5036691;28;20083;-59
2022/07/06 15:25:14;;;;;;;2.70;1.70;;;;;;;;;;5032280;28;20116;-59
2022/07/06 15:27:43;;;;;;;2.63;1.60;;;;;;;;;;5028969;28;20072;-59
2022/07/06 15:30:22;;;;;;;2.20;1.40;;;;;;;;;;5026427;28;20118;-59
2022/07/06 15:32:48;;;;;;;3.13;1.75;;;;;;;;;;5031010;28;20057;-59
2022/07/06 15:35:29;;;;;;;4.53;1.63;;;;;;;;;;5030784;28;20025;-59
2022/07/06 15:38:00;;;;;;;;;;;;;;;;;;5025323;28;20498;-59
2022/07/06 15:40:33;;;;;;;3.75;1.60;;;;;;;;;;5011561;28;19912;-59
2022/07/06 15:43:05;;;;;;;2.90;1.77;;;;;;;;;;5032642;28;20025;-59
2022/07/06 15:45:37;;;;;;;3.75;2.30;;;;;;;;;;5027949;28;20021;-59
2022/07/06 15:48:04;;;;;;;2.63;1.90;;;;;;;;;;5031185;28;20024;-59
2022/07/06 15:50:45;;;;;;;4.05;2.00;;;;;;;;;;5030091;28;20033;-59
2022/07/06 15:53:31;;;;;;;2.42;1.48;;;;;;;;;;5028328;28;20037;-60
2022/07/06 15:56:01;;;;;;;5.55;1.85;;;;;;;;;;5026044;28;20036;-58
2022/07/06 15:58:30;;;;;;;2.45;1.73;;;;;;;;;;5032286;28;20112;-60
2022/07/06 16:01:04;;;;;;;3.38;1.83;;;;;;;;;;5030985;28;20071;-58
2022/07/06 16:03:36;;;;;;;5.20;2.03;;;;;;;;;;5027386;28;20037;-60
2022/07/06 16:06:05;;;;;;;2.60;2.03;;;;;;;;;;5030681;28;20017;-58
2022/07/06 16:08:32;;;;;;;2.25;1.42;;;;;;;;;;5032345;28;20018;-58
2022/07/06 16:11:06;;;;;;;3.17;1.50;;;;;;;;;;5031598;28;20033;-58
2022/07/06 16:13:38;;;;;;;4.30;1.70;;;;;;;;;;5030792;28;20021;-58
2022/07/06 16:16:16;;;;;;;2.40;1.42;;;;;;;;;;5032789;28;20390;-58
2022/07/06 16:22:06;;;;;;;2.80;1.58;;;;;;;;;;5021731;28;20078;-58
2022/07/06 16:24:41;;;;;;;3.60;1.73;;;;;;;;;;5032165;28;20329;-58
2022/07/06 16:27:08;;;;;;;2.80;1.80;;;;;;;;;;5031875;28;20104;-58
2022/07/06 16:29:50;;;;;;;4.95;1.70;;;;;;;;;;5031164;28;20116;-58
2022/07/06 16:32:22;;;;;;;2.08;1.30;;;;;;;;;;5022390;28;20079;-58
2022/07/06 16:34:57;;;;;;;1.90;1.20;;;;;;;;;;5028588;28;20495;-58
2022/07/06 16:37:33;;;;;;;2.70;1.88;;;;;;;;;;5031739;28;20041;-58
2022/07/06 16:40:12;;;;;;;3.67;1.83;;;;;;;;;;5027785;28;20025;-58
2022/07/06 16:42:49;;;;;;;3.03;1.70;;;;;;;;;;5025662;28;20037;-58
2022/07/06 16:45:22;;;;;;;2.03;1.30;;;;;;;;;;5023231;28;20100;-58
2022/07/06 16:47:59;;;;;;;2.72;1.50;;;;;;;;;;5030374;28;20095;-58
2022/07/06 16:50:34;;;;;;;4.82;1.83;;;;;;;;;;5030769;28;20021;-60
2022/07/06 16:53:02;;;;;;;2.92;1.30;;;;;;;;;;5029897;28;20049;-58
2022/07/06 16:55:40;;;;;;;2.38;1.45;;;;;;;;;;5028236;28;20029;-58
2022/07/06 16:58:21;;;;;;;3.50;1.58;;;;;;;;;;5030695;28;20025;-58
2022/07/06 17:00:57;;;;;;;3.30;1.60;;;;;;;;;;5030339;28;20029;-58